x

Fairweather Ground 105nm West Of Juno, Ak (46083) Wave Buoy

6:50pm - Sun 7th Feb 2016 All times are AKST. -9 hours from GMT.

  • Sig Wave height 13.8ft
  • Swell Direction
  • Peak Period 11s
  • Average Period 9s
  • Wind
    22mph, 27mph gusts
  • Sea Temp 44°f
  • Air Temp 45°f
  • Sea Pressure 1015.2mb
  • Fairweather Ground 105nm West  Of Juno, Ak
  • Fairweather Ground 105nm West  Of Juno, Ak

More Historic Weather Station data

Upgrade to MSW Pro to gain access to the past 30 days of data for over 8000 Wavebouys and Weather Stations around the globe.

Join Pro

Comparision Forecast

View Surf forecast
   
Sun 02/07 6:50pm 14ft 11s 9s 22 27 mph 1015.2mb 44f 45f
5:50pm 11ft 11s 8s 20 22 mph 1014.7mb 44f 45f
4:50pm 12.5ft 12s 8s 11 16 mph 1014.7mb 44f 43f
3:50pm 13.5ft 11s 8s 13 18 mph 1014.8mb 44f 42f
2:50pm 12ft 11s 8s 18 22 mph 1013.5mb 44f 45f
1:50pm 15ft 11s 8s 22 27 mph 1012.7mb 44f 43f
12:50pm 14ft 11s 8s 27 36 mph 1012.3mb 44f 40f
11:50am 15ft 11s 8s 31 36 mph 1011.6mb 44f 39f
10:50am 15.5ft 11s 8s 34 40 mph 1010.3mb 44f 39f
9:50am 14.5ft 10s 7s 36 45 mph 1009.1mb 44f 40f
8:50am 14ft 8s 7s 38 51 mph 1007.6mb 44f 41f
7:50am 13ft 8s 7s 43 54 mph 1006.2mb 44f 41f
6:50am 12ft 8s 6s 43 49 mph 1006.5mb 44f 41f
5:50am 14ft 7s 7s 43 49 mph 1006.6mb 44f 40f
4:50am 13.5ft 7s 7s 45 54 mph 1008.2mb 44f 39f
3:50am 12.5ft 7s 6s 38 47 mph 1009.4mb 44f 42f
2:50am 12ft 6s 7s 38 47 mph 1011.6mb 44f 42f
1:50am 12.5ft 11s 7s 36 45 mph 1013.9mb 44f 41f
12:50am 12.5ft 14s 7s 36 45 mph 1015.3mb 44f 41f
Sat 02/06 11:50pm 12ft 11s 7s 31 38 mph 1016.8mb 44f 41f
10:50pm 11.5ft 14s 8s 27 36 mph 1018.1mb 44f 41f
9:50pm 12ft 11s 8s 25 31 mph 1019.2mb 44f 41f
8:50pm 11ft 12s 8s 25 29 mph 1020.1mb 44f 42f
7:50pm 9.5ft 11s 8s 18 22 mph 1020.4mb 44f 42f
6:50pm 9ft 12s 8s 18 20 mph 1020.5mb 44f 42f
5:50pm 11.5ft 12s 9s 13 18 mph 1021mb 44f 42f
4:50pm 10ft 13s 9s 13 18 mph 1020.6mb 44f 42f
3:50pm 11ft 12s 9s 13 18 mph 1020mb 44f 40f
2:50pm 11ft 12s 9s 16 20 mph 1019.6mb 44f 39f
1:50pm 11.5ft 12s 9s 11 16 mph 1019.5mb 44f 37f
12:50pm 12ft 11s 9s 9 16 mph 1019mb 44f 38f
11:50am 11ft 11s 9s 11 16 mph 1017.9mb 44f 41f
10:50am 11ft 12s 9s 7 9 mph 1017.1mb 44f 40f
9:50am 11.5ft 12s 9s 22 27 mph 1015.5mb 44f 40f
8:50am 13.5ft 12s 10s 11 13 mph 1014.6mb 44f 41f
7:50am 11ft 12s 9s 13 20 mph 1013.4mb 44f 41f
6:50am 11ft 13s 9s 11 13 mph 1012.5mb 44f 40f
5:50am 11ft 13s 9s 16 22 mph 1011.5mb 44f 41f
4:50am 11ft 12s 9s 16 18 mph 1010.5mb 44f 41f
3:50am 11ft 12s 9s 13 18 mph 1009.6mb 44f 42f
2:50am 12ft 13s 9s 18 22 mph 1008.3mb 44f 40f
1:50am 11ft 11s 9s 9 11 mph 1007.4mb 44f 42f
12:50am 12ft 12s 10s 9 11 mph 1006.4mb 44f 42f
Fri 02/05 11:50pm 12ft 12s 10s 9 11 mph 1005mb 44f 42f
10:50pm 11ft 13s 9s 4 7 mph 1004.2mb 44f 40f
9:50pm 10ft 12s 9s 7 9 mph 1003.4mb 44f 39f
8:50pm 11ft 13s 9s 4 7 mph 1002.5mb 44f 40f
7:50pm 12.5ft 12s 9s 7 9 mph 1001.9mb 44f 40f
6:50pm 10ft 12s 8s 9 16 mph 1001.1mb 44f 40f
5:50pm 12ft 12s 9s 9 16 mph 1000.5mb 44f 40f
4:50pm 10.5ft 13s 9s 11 13 mph 1000mb 44f 40f
3:50pm 11ft 12s 8s 2 7 mph 999.6mb 44f 40f
2:50pm 11.5ft 13s 9s 13 18 mph 998.9mb 44f 43f
1:50pm 12.5ft 11s 9s 11 16 mph 998.6mb 44f 42f
12:50pm 11.5ft 11s 9s 11 16 mph 998.3mb 44f 43f
11:50am 12ft 13s 9s 13 18 mph 998mb 44f 41f
10:50am 11ft 11s 8s 11 13 mph 997.7mb 44f 42f
9:50am 11.5ft 12s 9s 9 13 mph 997.4mb 44f 42f
8:50am 12ft 13s 9s 18 22 mph 996.9mb 44f 40f
7:50am 12ft 11s 9s 16 20 mph 996.5mb 44f 42f
6:50am 11.5ft 12s 9s 18 20 mph 996.2mb 44f 43f
5:50am 13ft 11s 9s 13 18 mph 996mb 44f 43f
4:50am 11ft 11s 8s 4 7 mph 995.9mb 44f 42f
3:50am 12ft 12s 9s 4 7 mph 995.6mb 44f 41f
2:50am 13.5ft 13s 9s 11 16 mph 995.2mb 44f 42f
1:50am 12.5ft 13s 8s 13 18 mph 994.7mb 44f 42f
12:50am 13ft 13s 9s 16 22 mph 994mb 44f 42f
Thu 02/04 11:50pm 13ft 13s 9s 16 20 mph 993.2mb 44f 42f
10:50pm 13ft 13s 9s 7 11 mph 993.1mb 44f 43f
9:50pm 14ft 12s 9s 13 20 mph 992.9mb 44f 44f
8:50pm 15ft 13s 9s 16 18 mph 993mb 44f 44f
7:50pm 14.5ft 10s 9s 13 16 mph 993mb 44f 43f
6:50pm 16ft 11s 9s 18 25 mph 992.7mb 44f 44f
5:50pm 16.5ft 13s 9s 18 20 mph 992.7mb 44f 44f
4:50pm 15ft 11s 9s 18 20 mph 992.9mb 44f 45f
3:50pm 17.5ft 12s 9s 18 20 mph 992.8mb 44f 44f
2:50pm 18.5ft 11s 9s 20 25 mph 992.3mb 44f 43f
1:50pm 19ft 11s 9s 20 25 mph 992.1mb 44f 42f
12:50pm 18.5ft 11s 9s 20 29 mph 991.3mb 44f 42f
11:50am 19.5ft 12s 9s 31 38 mph 989.9mb 44f 41f
10:50am 18.5ft 11s 8s 34 43 mph 989.3mb 44f 40f
9:50am 19.5ft 11s 8s 38 45 mph 989.1mb 44f 40f
8:50am 16.5ft 11s 8s 40 49 mph 988.5mb 44f 40f
7:50am 17.5ft 15s 8s 40 49 mph 988.4mb 44f 40f
6:50am 15.5ft 15s 8s 40 51 mph 988.3mb 44f 42f
5:50am 14ft 12s 7s 38 47 mph 989.6mb 45f 42f